»·PEaware :: N143VT KVNY-KPRC

N143VT :: KVNY-KPRC

FLIGHT INFORMATION

Flight Status: Arrived
Operator: Privately registered:
United States
More flights under this callsign
Pilot: Anonymous 16492 (16492)
Aircraft: Unknown
(EPIC)
More flights by this aircraft type
Origin: KVNY Van Nuys
United States
Destination: KPRC Love
United States
More flights between these airports :: More routes between these airports
Route: +NUAL9 PMD TNP V208 EED V12 DRK
File this flight plan on PilotEdge
Remarks:
Altitude:
(Current/Filed)
21,000ft
Speed:
(Current/Filed)
330kts
Departed: 18-Sep-18 04:49 PM
Arrived: 18-Sep-18 06:04 PM
Distance/Time
Traveled:
301nm/1:15
Distance/Time
To Go:
Arrived

Flight Plot

Page will automatically refresh every two minutes.

Flight plan parsing failed; only flown route is shown


Map Options




Map Legend


Flown Route
Filed Route
Departure Airport
Arrival Airport
Navaid (VOR, NDB)
Fix

Horizontal Profiles

Position Reports

Time Latitude Longitude Heading Altitude Ground
Speed
18-Sep-18 16:26 34.204642 -118.491385 43 806ft 0kts
18-Sep-18 16:27 34.204642 -118.491385 43 806ft 0kts
18-Sep-18 16:28 34.204642 -118.491385 43 806ft 0kts
18-Sep-18 16:29 34.204642 -118.491385 43 806ft 0kts
18-Sep-18 16:30 34.204642 -118.491385 43 806ft 0kts
18-Sep-18 16:31 34.204642 -118.491385 43 806ft 0kts
18-Sep-18 16:32 34.204642 -118.491385 43 806ft 0kts
18-Sep-18 16:33 34.204642 -118.491385 43 806ft 0kts
18-Sep-18 16:34 34.204642 -118.491385 43 806ft 0kts
18-Sep-18 16:35 34.204642 -118.491385 43 806ft 0kts
18-Sep-18 16:36 34.204642 -118.491385 43 806ft 0kts
18-Sep-18 16:37 34.204642 -118.491385 43 806ft 0kts
18-Sep-18 16:38 34.204642 -118.491385 43 806ft 0kts
18-Sep-18 16:39 34.204642 -118.491385 43 806ft 0kts
18-Sep-18 16:40 34.204642 -118.491385 43 806ft 0kts
18-Sep-18 16:41 34.204642 -118.491384 43 806ft 0kts
18-Sep-18 16:42 34.204642 -118.491384 43 806ft 0kts
18-Sep-18 16:43 34.204850 -118.491142 3 806ft 13kts
18-Sep-18 16:44 34.210545 -118.491605 355 806ft 29kts
18-Sep-18 16:45 34.217994 -118.492340 358 806ft 21kts
18-Sep-18 16:46 34.218646 -118.492234 53 806ft 0kts
18-Sep-18 16:47 34.218646 -118.492234 53 806ft 0kts
18-Sep-18 16:48 34.218646 -118.492234 53 806ft 0kts
18-Sep-18 16:49 34.218646 -118.492234 53 806ft 0kts
18-Sep-18 16:50 34.218646 -118.492234 53 806ft 0kts
18-Sep-18 16:51 34.215350 -118.490886 176 806ft 90kts
18-Sep-18 16:52 34.174513 -118.481301 130 1701ft 155kts
18-Sep-18 16:53 34.150019 -118.434659 120 3205ft 168kts
18-Sep-18 16:54 34.183355 -118.408867 352 4017ft 198kts
18-Sep-18 16:55 34.233980 -118.416511 351 5461ft 183kts
18-Sep-18 16:56 34.285710 -118.424654 351 6904ft 190kts
18-Sep-18 16:57 34.334132 -118.409948 33 8270ft 191kts
18-Sep-18 16:58 34.380636 -118.379491 23 9549ft 192kts
18-Sep-18 16:59 34.429896 -118.351087 22 10610ft 200kts
18-Sep-18 17:00 34.474981 -118.312100 51 11799ft 206kts
18-Sep-18 17:01 34.510800 -118.256646 52 12844ft 213kts
18-Sep-18 17:02 34.547104 -118.198989 53 13834ft 218kts
18-Sep-18 17:03 34.583907 -118.140138 53 14767ft 222kts
18-Sep-18 17:04 34.621521 -118.079641 58 15978ft 227kts
18-Sep-18 17:05 34.617387 -118.006471 107 17330ft 223kts
18-Sep-18 17:06 34.602863 -117.933006 109 18598ft 227kts
18-Sep-18 17:07 34.586921 -117.858333 110 19771ft 231kts
18-Sep-18 17:08 34.570421 -117.782368 111 20882ft 234kts
18-Sep-18 17:09 34.552441 -117.700386 110 21046ft 271kts
18-Sep-18 17:10 34.532253 -117.608399 110 21048ft 294kts
18-Sep-18 17:11 34.510848 -117.511218 109 21048ft 304kts
18-Sep-18 17:12 34.488772 -117.411416 109 21048ft 309kts
18-Sep-18 17:13 34.466679 -117.311958 110 21040ft 311kts
18-Sep-18 17:14 34.444127 -117.210868 110 21026ft 312kts
18-Sep-18 17:15 34.421559 -117.110152 110 20929ft 315kts
18-Sep-18 17:16 34.398938 -117.009652 109 20869ft 314kts
18-Sep-18 17:17 34.376085 -116.908494 109 20860ft 311kts
18-Sep-18 17:18 34.353327 -116.808117 109 20854ft 310kts
18-Sep-18 17:19 34.330475 -116.707786 109 20839ft 309kts
18-Sep-18 17:20 34.307551 -116.607560 109 20826ft 309kts
18-Sep-18 17:21 34.284992 -116.509323 109 20861ft 308kts
18-Sep-18 17:22 34.262100 -116.410047 109 20906ft 307kts
18-Sep-18 17:23 34.239294 -116.311548 109 20915ft 307kts
18-Sep-18 17:24 34.216200 -116.212203 109 20911ft 307kts
18-Sep-18 17:25 34.193125 -116.113335 109 20915ft 307kts
18-Sep-18 17:26 34.169863 -116.014053 109 20915ft 307kts
18-Sep-18 17:27 34.146654 -115.915399 109 20916ft 307kts
18-Sep-18 17:28 34.123189 -115.816042 109 20916ft 307kts
18-Sep-18 17:29 34.141866 -115.717043 62 20917ft 320kts
18-Sep-18 17:30 34.187132 -115.624363 59 20917ft 321kts
18-Sep-18 17:31 34.233853 -115.532507 59 20917ft 321kts
18-Sep-18 17:32 34.280721 -115.440516 59 20918ft 321kts
18-Sep-18 17:33 34.327219 -115.349048 60 20874ft 323kts
18-Sep-18 17:34 34.374162 -115.256475 60 20818ft 323kts
18-Sep-18 17:35 34.420878 -115.164119 60 20779ft 323kts
18-Sep-18 17:36 34.467225 -115.071947 60 20779ft 322kts
18-Sep-18 17:37 34.513731 -114.979794 60 20780ft 321kts
18-Sep-18 17:38 34.560151 -114.887310 60 20780ft 321kts
18-Sep-18 17:39 34.606575 -114.794559 60 20781ft 321kts
18-Sep-18 17:40 34.652815 -114.701931 60 20781ft 321kts
18-Sep-18 17:41 34.699038 -114.609094 60 20781ft 321kts
18-Sep-18 17:42 34.745053 -114.516430 60 20782ft 321kts
18-Sep-18 17:43 34.763110 -114.414418 92 20779ft 313kts
18-Sep-18 17:44 34.761968 -114.314033 95 20769ft 312kts
18-Sep-18 17:45 34.759462 -114.208970 95 20766ft 312kts
18-Sep-18 17:46 34.756750 -114.104984 95 20787ft 311kts
18-Sep-18 17:47 34.753906 -114.000055 95 20805ft 311kts
18-Sep-18 17:48 34.750980 -113.895336 95 20868ft 309kts
18-Sep-18 17:49 34.747978 -113.790942 95 20941ft 309kts
18-Sep-18 17:50 34.744659 -113.679899 95 19526ft 345kts
18-Sep-18 17:51 34.741068 -113.562223 95 18043ft 344kts
18-Sep-18 17:52 34.737488 -113.448679 95 16561ft 333kts
18-Sep-18 17:53 34.733893 -113.337911 95 15081ft 327kts
18-Sep-18 17:54 34.730441 -113.233624 96 14903ft 290kts
18-Sep-18 17:55 34.727235 -113.139646 96 14952ft 269kts
18-Sep-18 17:56 34.724121 -113.050595 96 14997ft 259kts
18-Sep-18 17:57 34.720758 -112.958574 94 13634ft 285kts
18-Sep-18 17:58 34.715774 -112.860675 101 12148ft 295kts
18-Sep-18 17:59 34.701782 -112.761893 100 10653ft 297kts
18-Sep-18 18:00 34.689133 -112.669128 100 10005ft 249kts
18-Sep-18 18:01 34.678020 -112.587650 100 9310ft 261kts
18-Sep-18 18:02 34.665760 -112.495392 99 7330ft 278kts
18-Sep-18 18:03 34.686409 -112.417761 49 6537ft 223kts
18-Sep-18 18:04 34.686181 -112.379127 203 6154ft 132kts
18-Sep-18 18:05 34.664087 -112.409318 222 5137ft 116kts
18-Sep-18 18:06 34.646803 -112.427576 208 5045ft 22kts
18-Sep-18 18:07 34.646965 -112.424845 132 5045ft 16kts
18-Sep-18 18:08 34.646517 -112.424495 38 5045ft 0kts
18-Sep-18 18:09 34.646517 -112.424495 38 5045ft 0kts
18-Sep-18 18:10 34.646517 -112.424495 38 5045ft 0kts
18-Sep-18 18:11 34.646517 -112.424495 38 5045ft 0kts
18-Sep-18 18:12 34.646517 -112.424495 38 5045ft 0kts
18-Sep-18 18:13 34.646517 -112.424495 38 5045ft 0kts
18-Sep-18 18:14 34.646517 -112.424495 38 5045ft 0kts

Navigation Log

Ident Type
Flight plan parsing failed, navigation log unavailable